Time;durP1;ratioP1;P1;durP2;ratioP2;P2;SDS_P1;SDS_P2;PMS_P1;PMS_P2;Temp;Humidity;BMP_temperature;BMP_pressure;BME280_temperature;BME280_humidity;BME280_pressure;Samples;Min_cycle;Max_cycle;Signal;HPM_P1;HPM_P2
2023/02/04 00:01:36;;;;;;;2.17;1.55;;;;;;;-146.47;100.00;65468.63;4711154;30;20052;-78
2023/02/04 00:04:02;;;;;;;2.55;1.60;;;;;;;-146.47;100.00;65468.63;4705125;30;20064;-79
2023/02/04 00:06:27;;;;;;;1.60;1.20;;;;;;;-146.47;100.00;65468.63;4708227;30;20045;-78
2023/02/04 00:08:53;;;;;;;2.10;1.42;;;;;;;-146.47;100.00;65468.63;4713822;30;20048;-78
2023/02/04 00:11:19;;;;;;;2.00;1.45;;;;;;;-146.47;100.00;65468.63;4709029;30;20060;-78
2023/02/04 00:13:44;;;;;;;2.20;1.60;;;;;;;-146.47;100.00;65468.63;4709254;30;20076;-80
2023/02/04 00:16:10;;;;;;;2.80;1.80;;;;;;;-146.47;100.00;65468.63;4706999;30;20498;-80
2023/02/04 00:18:35;;;;;;;2.67;1.65;;;;;;;-146.47;100.00;65468.63;4702775;30;20500;-79
2023/02/04 00:21:01;;;;;;;2.95;2.00;;;;;;;-146.47;100.00;65468.63;4705965;30;20053;-80
2023/02/04 00:23:27;;;;;;;2.00;1.55;;;;;;;-146.47;100.00;65468.63;4708800;30;20820;-80
2023/02/04 00:25:52;;;;;;;2.05;1.70;;;;;;;-146.47;100.00;65468.63;4711591;30;20057;-80
2023/02/04 00:28:18;;;;;;;2.58;1.80;;;;;;;-146.47;100.00;65468.63;4703046;30;20479;-79
2023/02/04 00:30:43;;;;;;;1.88;1.63;;;;;;;-146.47;100.00;65468.63;4704352;30;20988;-79
2023/02/04 00:33:09;;;;;;;2.63;2.00;;;;;;;-146.47;100.00;65468.63;4705399;30;20052;-80
2023/02/04 00:35:36;;;;;;;2.05;1.45;;;;;;;-146.47;100.00;65468.63;4705469;30;20048;-79
2023/02/04 00:38:02;;;;;;;5.55;2.10;;;;;;;-146.47;100.00;65468.63;4699426;30;20054;-79
2023/02/04 00:40:28;;;;;;;2.65;1.90;;;;;;;-146.47;100.00;65468.63;4706655;30;20061;-79
2023/02/04 00:42:53;;;;;;;2.90;1.77;;;;;;;-146.47;100.00;65468.63;4710948;30;20506;-79
2023/02/04 00:45:19;;;;;;;3.45;2.15;;;;;;;-146.47;100.00;65468.63;4697998;30;20045;-79
2023/02/04 00:47:45;;;;;;;4.68;2.40;;;;;;;-146.47;100.00;65468.63;4698912;30;20041;-80
2023/02/04 00:50:10;;;;;;;2.67;1.80;;;;;;;-146.47;100.00;65468.63;4712632;30;20064;-79
2023/02/04 00:52:36;;;;;;;3.45;1.98;;;;;;;-146.47;100.00;65468.63;4706317;30;20046;-79
2023/02/04 00:55:01;;;;;;;3.65;2.15;;;;;;;-146.47;100.00;65468.63;4702853;30;20053;-79
2023/02/04 00:57:27;;;;;;;3.25;1.90;;;;;;;-146.47;100.00;65468.63;4702417;30;20065;-79
2023/02/04 00:59:52;;;;;;;2.67;1.88;;;;;;;-146.47;100.00;65468.63;4702997;30;20057;-79
2023/02/04 01:02:18;;;;;;;2.83;1.90;;;;;;;-146.47;100.00;65468.63;4704815;30;20476;-79
2023/02/04 01:04:43;;;;;;;2.92;1.88;;;;;;;-146.47;100.00;65468.63;4702753;30;20057;-79
2023/02/04 01:07:09;;;;;;;5.43;2.70;;;;;;;-146.47;100.00;65468.63;4713012;30;20072;-79
2023/02/04 01:09:34;;;;;;;3.92;1.95;;;;;;;-146.47;100.00;65468.63;4712427;30;20053;-79
2023/02/04 01:12:00;;;;;;;3.75;2.17;;;;;;;-146.47;100.00;65468.63;4712252;30;20064;-79
2023/02/04 01:14:26;;;;;;;5.57;2.22;;;;;;;-146.47;100.00;65468.63;4709692;30;20115;-79
2023/02/04 01:16:51;;;;;;;3.78;1.88;;;;;;;-146.47;100.00;65468.63;4711007;30;20525;-80
2023/02/04 01:19:17;;;;;;;4.70;2.50;;;;;;;-146.47;100.00;65468.63;4705577;30;20499;-79
2023/02/04 01:21:42;;;;;;;4.07;2.28;;;;;;;-146.47;100.00;65468.63;4704855;30;20056;-79
2023/02/04 01:24:08;;;;;;;3.60;2.00;;;;;;;-146.47;100.00;65468.63;4703614;30;20072;-80
2023/02/04 01:26:33;;;;;;;5.30;2.65;;;;;;;-146.47;100.00;65468.63;4707217;30;20045;-80
2023/02/04 01:28:59;;;;;;;4.95;2.83;;;;;;;-146.47;100.00;65468.63;4709626;30;20095;-79
2023/02/04 01:31:25;;;;;;;6.32;2.47;;;;;;;-146.47;100.00;65468.63;4704436;30;20042;-80
2023/02/04 01:33:51;;;;;;;5.70;2.58;;;;;;;-146.47;100.00;65468.63;4705050;30;20104;-79
2023/02/04 01:36:20;;;;;;;4.90;2.63;;;;;;;-146.47;100.00;65468.63;4708423;30;20045;-79
2023/02/04 01:38:49;;;;;;;6.25;2.88;;;;;;;-146.47;100.00;65468.63;4703530;30;20057;-78
2023/02/04 01:41:17;;;;;;;7.65;2.40;;;;;;;-146.47;100.00;65468.63;4701078;30;20057;-77
2023/02/04 01:43:43;;;;;;;8.45;2.67;;;;;;;-146.47;100.00;65468.63;4704282;30;20083;-78
2023/02/04 01:46:09;;;;;;;9.55;2.42;;;;;;;-146.47;100.00;65468.63;4697188;30;20510;-78
2023/02/04 01:48:34;;;;;;;3.13;2.00;;;;;;;-146.47;100.00;65468.63;4707996;30;20052;-79
2023/02/04 01:51:25;;;;;;;4.60;2.00;;;;;;;-146.47;100.00;65468.63;4711451;30;20133;-78
2023/02/04 01:53:51;;;;;;;8.52;2.25;;;;;;;-146.47;100.00;65468.63;4709037;30;20128;-78
2023/02/04 01:56:20;;;;;;;3.58;1.90;;;;;;;-146.47;100.00;65468.63;4702532;30;20076;-78
2023/02/04 01:58:46;;;;;;;4.65;2.20;;;;;;;-146.47;100.00;65468.63;4708279;30;20158;-78
2023/02/04 02:01:14;;;;;;;4.50;2.13;;;;;;;-146.47;100.00;65468.63;4707478;30;20111;-80
2023/02/04 02:03:41;;;;;;;16.73;2.33;;;;;;;-146.47;100.00;65468.63;4700174;30;20571;-78
2023/02/04 02:06:09;;;;;;;4.20;1.98;;;;;;;-146.47;100.00;65468.63;4711134;30;20049;-78
2023/02/04 02:08:36;;;;;;;4.15;2.00;;;;;;;-146.47;100.00;65468.63;4709471;30;20048;-79
2023/02/04 02:11:02;;;;;;;6.60;2.30;;;;;;;-146.47;100.00;65468.63;4712726;30;20507;-79
2023/02/04 02:13:27;;;;;;;14.05;2.40;;;;;;;-146.47;100.00;65468.63;4700826;30;20049;-79
2023/02/04 02:15:53;;;;;;;12.55;2.38;;;;;;;-146.47;100.00;65468.63;4703532;30;20053;-79
2023/02/04 02:18:19;;;;;;;9.82;2.38;;;;;;;-146.47;100.00;65468.63;4703002;30;20173;-79
2023/02/04 02:20:44;;;;;;;7.05;2.80;;;;;;;-146.47;100.00;65468.63;4707905;30;20049;-79
2023/02/04 02:23:28;;;;;;;14.55;3.55;;;;;;;-146.47;100.00;65468.63;4696788;30;20050;-78
2023/02/04 02:25:54;;;;;;;11.73;2.97;;;;;;;-146.47;100.00;65468.63;4712495;30;20049;-78
2023/02/04 02:28:22;;;;;;;10.40;3.03;;;;;;;-146.47;100.00;65468.63;4702575;30;20048;-79
2023/02/04 02:30:49;;;;;;;15.77;3.40;;;;;;;-146.47;100.00;65468.63;4707579;30;20510;-79
2023/02/04 02:33:18;;;;;;;12.80;3.30;;;;;;;-146.47;100.00;65468.63;4707957;30;20041;-79
2023/02/04 02:35:47;;;;;;;13.30;3.60;;;;;;;-146.47;100.00;65468.63;4720677;30;20049;-80
2023/02/04 02:38:13;;;;;;;12.65;3.70;;;;;;;-146.47;100.00;65468.63;4705306;30;20068;-79
2023/02/04 02:40:40;;;;;;;18.30;4.15;;;;;;;-146.47;100.00;65468.63;4707150;30;20053;-79
2023/02/04 02:43:06;;;;;;;10.23;3.53;;;;;;;-146.47;100.00;65468.63;4696729;30;20526;-79
2023/02/04 02:45:33;;;;;;;10.40;3.47;;;;;;;-146.47;100.00;65468.63;4705752;30;20056;-79
2023/02/04 02:48:02;;;;;;;14.55;3.47;;;;;;;-146.47;100.00;65468.63;4705369;30;20714;-80
2023/02/04 02:50:29;;;;;;;13.77;3.45;;;;;;;-146.47;100.00;65468.63;4705365;30;20045;-79
2023/02/04 02:52:55;;;;;;;12.35;2.63;;;;;;;-146.47;100.00;65468.63;4705976;30;20082;-79
2023/02/04 02:55:24;;;;;;;20.90;3.42;;;;;;;-146.47;100.00;65468.63;4705934;30;20045;-80
2023/02/04 02:57:51;;;;;;;16.83;3.75;;;;;;;-146.47;100.00;65468.63;4705111;30;20049;-79
2023/02/04 03:00:20;;;;;;;18.80;3.88;;;;;;;-146.47;100.00;65468.63;4697353;30;20099;-79
2023/02/04 03:02:53;;;;;;;15.82;3.50;;;;;;;-146.47;100.00;65468.63;4701045;30;20170;-79
2023/02/04 03:05:19;;;;;;;11.30;3.00;;;;;;;-146.47;100.00;65468.63;4714205;30;20120;-79
2023/02/04 03:07:45;;;;;;;15.52;3.25;;;;;;;-146.47;100.00;65468.63;4706568;30;20116;-79
2023/02/04 03:10:10;;;;;;;23.00;3.90;;;;;;;-146.47;100.00;65468.63;4715304;30;20451;-79
2023/02/04 03:12:36;;;;;;;17.33;3.30;;;;;;;-146.47;100.00;65468.63;4707962;30;20048;-79
2023/02/04 03:15:04;;;;;;;9.50;3.20;;;;;;;-146.47;100.00;65468.63;4714058;30;20060;-79
2023/02/04 03:17:30;;;;;;;18.23;3.80;;;;;;;-146.47;100.00;65468.63;4713276;30;20048;-79
2023/02/04 03:19:57;;;;;;;12.73;2.70;;;;;;;-146.47;100.00;65468.63;4707798;30;20049;-79
2023/02/04 03:22:23;;;;;;;16.75;3.10;;;;;;;-146.47;100.00;65468.63;4708265;30;20049;-79
2023/02/04 03:24:48;;;;;;;17.23;3.75;;;;;;;-146.47;100.00;65468.63;4702951;30;20123;-79
2023/02/04 03:27:15;;;;;;;21.52;3.58;;;;;;;-146.47;100.00;65468.63;4712650;30;20521;-79
2023/02/04 03:29:43;;;;;;;19.02;3.33;;;;;;;-146.47;100.00;65468.63;4711648;30;20053;-79
2023/02/04 03:32:08;;;;;;;15.60;3.50;;;;;;;-146.47;100.00;65468.63;4710153;30;20053;-81
2023/02/04 03:34:34;;;;;;;17.77;3.17;;;;;;;-146.47;100.00;65468.63;4711755;30;20569;-79
2023/02/04 03:36:59;;;;;;;13.45;3.22;;;;;;;-146.47;100.00;65468.63;4708565;30;20118;-79
2023/02/04 03:39:25;;;;;;;18.15;3.47;;;;;;;-146.47;100.00;65468.63;4704220;30;20099;-79
2023/02/04 03:41:50;;;;;;;9.63;3.03;;;;;;;-146.47;100.00;65468.63;4698673;30;20060;-79
2023/02/04 03:44:17;;;;;;;16.05;3.75;;;;;;;-146.47;100.00;65468.63;4708805;30;20045;-79
2023/02/04 03:46:43;;;;;;;17.25;4.15;;;;;;;-146.47;100.00;65468.63;4703978;30;20059;-79
2023/02/04 03:49:08;;;;;;;16.50;3.55;;;;;;;-146.47;100.00;65468.63;4709702;30;20049;-79
2023/02/04 03:51:34;;;;;;;17.88;3.92;;;;;;;-146.47;100.00;65468.63;4704038;30;20057;-80
2023/02/04 03:53:59;;;;;;;14.65;3.22;;;;;;;-146.47;100.00;65468.63;4708016;30;20049;-79
2023/02/04 03:56:25;;;;;;;19.52;3.10;;;;;;;-146.47;100.00;65468.63;4703375;30;20096;-79
2023/02/04 03:58:50;;;;;;;9.88;2.78;;;;;;;-146.47;100.00;65468.63;4711342;30;20045;-80
2023/02/04 04:01:16;;;;;;;14.90;3.33;;;;;;;-146.47;100.00;65468.63;4711331;30;20051;-80
2023/02/04 04:03:41;;;;;;;19.02;3.47;;;;;;;-146.47;100.00;65468.63;4701454;30;20530;-79
2023/02/04 04:06:08;;;;;;;11.75;2.53;;;;;;;-146.47;100.00;65468.63;4705668;30;20060;-80
2023/02/04 04:08:35;;;;;;;11.75;3.45;;;;;;;-146.47;100.00;65468.63;4709206;30;20418;-80
2023/02/04 04:11:00;;;;;;;17.60;3.03;;;;;;;-146.47;100.00;65468.63;4702131;30;20049;-79
2023/02/04 04:13:26;;;;;;;15.30;2.88;;;;;;;-146.47;100.00;65468.63;4711341;30;20525;-79
2023/02/04 04:15:51;;;;;;;8.35;2.72;;;;;;;-146.47;100.00;65468.63;4701500;30;20050;-79
2023/02/04 04:18:17;;;;;;;10.23;3.15;;;;;;;-146.47;100.00;65468.63;4702255;30;20049;-79
2023/02/04 04:20:42;;;;;;;10.93;2.72;;;;;;;-146.47;100.00;65468.63;4711506;30;20052;-80
2023/02/04 04:23:08;;;;;;;10.35;2.50;;;;;;;-146.47;100.00;65468.63;4712854;30;20049;-79
2023/02/04 04:25:33;;;;;;;14.93;3.65;;;;;;;-146.47;100.00;65468.63;4704102;30;20053;-81
2023/02/04 04:27:59;;;;;;;16.67;2.95;;;;;;;-146.47;100.00;65468.63;4710178;30;20045;-80
2023/02/04 04:30:24;;;;;;;16.02;3.05;;;;;;;-146.47;100.00;65468.63;4698699;30;20044;-80
2023/02/04 04:32:50;;;;;;;17.45;2.97;;;;;;;-146.47;100.00;65468.63;4707840;30;20073;-79
2023/02/04 04:35:15;;;;;;;13.13;2.92;;;;;;;-146.47;100.00;65468.63;4710946;30;20075;-80
2023/02/04 04:37:41;;;;;;;10.25;2.88;;;;;;;-146.47;100.00;65468.63;4703175;30;20050;-79
2023/02/04 04:40:10;;;;;;;9.32;3.03;;;;;;;-146.47;100.00;65468.63;4700383;30;20048;-80
2023/02/04 04:42:36;;;;;;;15.80;3.83;;;;;;;-146.47;100.00;65468.63;4708870;30;20511;-80
2023/02/04 04:45:02;;;;;;;9.77;2.55;;;;;;;-146.47;100.00;65468.63;4709643;30;20108;-79
2023/02/04 04:47:28;;;;;;;17.77;3.17;;;;;;;-146.47;100.00;65468.63;4701119;30;20052;-80
2023/02/04 04:49:54;;;;;;;18.23;2.97;;;;;;;-146.47;100.00;65468.63;4708956;30;20049;-80
2023/02/04 04:52:19;;;;;;;15.90;2.92;;;;;;;-146.47;100.00;65468.63;4705126;30;20088;-79
2023/02/04 04:54:45;;;;;;;18.02;2.88;;;;;;;-146.47;100.00;65468.63;4715895;30;20056;-80
2023/02/04 04:57:11;;;;;;;16.25;3.33;;;;;;;-146.47;100.00;65468.63;4703599;30;20076;-80
2023/02/04 04:59:36;;;;;;;8.40;2.50;;;;;;;-146.47;100.00;65468.63;4701722;30;20045;-80
2023/02/04 05:02:02;;;;;;;12.82;3.30;;;;;;;-146.47;100.00;65468.63;4703528;30;20077;-80
2023/02/04 05:04:27;;;;;;;17.45;3.40;;;;;;;-146.47;100.00;65468.63;4706561;30;20103;-80
2023/02/04 05:06:53;;;;;;;14.50;2.97;;;;;;;-146.47;100.00;65468.63;4701003;30;20053;-80
2023/02/04 05:09:18;;;;;;;17.52;3.50;;;;;;;-146.47;100.00;65468.63;4697018;30;20122;-80
2023/02/04 05:11:44;;;;;;;15.45;2.60;;;;;;;-146.47;100.00;65468.63;4702639;30;20057;-80
2023/02/04 05:14:09;;;;;;;16.77;2.70;;;;;;;-146.47;100.00;65468.63;4701787;30;20057;-80
2023/02/04 05:16:35;;;;;;;11.20;2.45;;;;;;;-146.47;100.00;65468.63;4704562;30;20104;-80
2023/02/04 05:19:00;;;;;;;11.30;2.63;;;;;;;-146.47;100.00;65468.63;4716448;30;20086;-80
2023/02/04 05:21:26;;;;;;;11.25;2.70;;;;;;;-146.47;100.00;65468.63;4701855;30;20069;-80
2023/02/04 05:23:51;;;;;;;13.77;3.08;;;;;;;-146.47;100.00;65468.63;4710487;30;20057;-81
2023/02/04 05:26:17;;;;;;;16.63;3.30;;;;;;;-146.47;100.00;65468.63;4706416;30;20046;-80
2023/02/04 05:28:42;;;;;;;13.40;2.92;;;;;;;-146.47;100.00;65468.63;4705230;30;20048;-80
2023/02/04 05:31:08;;;;;;;11.60;3.83;;;;;;;-146.47;100.00;65468.63;4702660;30;20159;-79
2023/02/04 05:33:33;;;;;;;17.42;3.63;;;;;;;-146.47;100.00;65468.63;4708893;30;20049;-80
2023/02/04 05:35:59;;;;;;;14.70;3.10;;;;;;;-146.47;100.00;65468.63;4697268;30;20050;-80
2023/02/04 05:38:24;;;;;;;24.65;2.78;;;;;;;-146.47;100.00;65468.63;4702231;30;20053;-80
2023/02/04 05:40:50;;;;;;;14.52;3.30;;;;;;;-146.47;100.00;65468.63;4706627;30;20098;-80
2023/02/04 05:43:15;;;;;;;9.65;2.78;;;;;;;-146.47;100.00;65468.63;4703330;30;20070;-80
2023/02/04 05:45:41;;;;;;;10.80;3.15;;;;;;;-146.47;100.00;65468.63;4700614;30;20129;-80
2023/02/04 05:48:06;;;;;;;10.82;3.13;;;;;;;-146.47;100.00;65468.63;4698085;30;20434;-80
2023/02/04 05:50:32;;;;;;;18.83;3.35;;;;;;;-146.47;100.00;65468.63;4701402;30;20049;-80
2023/02/04 05:52:57;;;;;;;11.25;2.88;;;;;;;-146.47;100.00;65468.63;4700564;30;20053;-81
2023/02/04 05:55:23;;;;;;;18.17;3.47;;;;;;;-146.47;100.00;65468.63;4700465;30;20056;-80
2023/02/04 05:57:48;;;;;;;10.48;2.95;;;;;;;-146.47;100.00;65468.63;4695908;30;20392;-81
2023/02/04 06:00:14;;;;;;;17.83;3.40;;;;;;;-146.47;100.00;65468.63;4704978;30;20077;-80
2023/02/04 06:02:40;;;;;;;14.10;3.30;;;;;;;-146.47;100.00;65468.63;4700201;30;20065;-80
2023/02/04 06:05:06;;;;;;;13.55;3.88;;;;;;;-146.47;100.00;65468.63;4712705;30;20633;-80
2023/02/04 06:07:31;;;;;;;13.65;3.55;;;;;;;-146.47;100.00;65468.63;4705374;30;20049;-81
2023/02/04 06:09:57;;;;;;;26.00;4.18;;;;;;;-146.47;100.00;65468.63;4696621;30;20052;-80
2023/02/04 06:12:22;;;;;;;13.90;3.53;;;;;;;-146.47;100.00;65468.63;4702659;30;20049;-79
2023/02/04 06:14:48;;;;;;;22.20;4.45;;;;;;;-146.47;100.00;65468.63;4699156;30;20057;-79
2023/02/04 06:17:13;;;;;;;15.27;3.85;;;;;;;-146.47;100.00;65468.63;4702969;30;20053;-80
2023/02/04 06:19:39;;;;;;;15.80;3.63;;;;;;;-146.47;100.00;65468.63;4699016;30;20056;-78
2023/02/04 06:22:04;;;;;;;23.27;4.68;;;;;;;-146.47;100.00;65468.63;4694887;30;20053;-78
2023/02/04 06:24:30;;;;;;;18.42;4.18;;;;;;;-146.47;100.00;65468.63;4698186;30;20491;-79
2023/02/04 06:26:55;;;;;;;22.20;3.88;;;;;;;-146.47;100.00;65468.63;4701115;30;20419;-80
2023/02/04 06:29:21;;;;;;;28.55;4.93;;;;;;;-146.47;100.00;65468.63;4698853;30;20050;-80
2023/02/04 06:31:48;;;;;;;15.05;4.30;;;;;;;-146.47;100.00;65468.63;4705896;30;20045;-81
2023/02/04 06:34:14;;;;;;;23.90;4.45;;;;;;;-146.47;100.00;65468.63;4702739;30;20087;-79
2023/02/04 06:36:39;;;;;;;27.67;4.72;;;;;;;-146.47;100.00;65468.63;4707810;30;20037;-80
2023/02/04 06:39:05;;;;;;;23.35;4.70;;;;;;;-146.47;100.00;65468.63;4713770;30;20426;-79
2023/02/04 06:41:30;;;;;;;16.15;4.03;;;;;;;-146.47;100.00;65468.63;4709966;30;20053;-80
2023/02/04 06:43:56;;;;;;;25.38;4.95;;;;;;;-146.47;100.00;65468.63;4705197;30;20077;-79
2023/02/04 06:46:21;;;;;;;22.77;5.10;;;;;;;-146.47;100.00;65468.63;4708235;30;20053;-80
2023/02/04 06:48:47;;;;;;;15.90;4.35;;;;;;;-146.47;100.00;65468.63;4716316;30;20128;-80
2023/02/04 06:51:13;;;;;;;18.90;4.53;;;;;;;-146.47;100.00;65468.63;4723457;30;20433;-81
2023/02/04 06:53:39;;;;;;;24.70;4.80;;;;;;;-146.47;100.00;65468.63;4706585;30;20080;-81
2023/02/04 06:56:05;;;;;;;23.85;5.20;;;;;;;-146.47;100.00;65468.63;4716937;30;20080;-81
2023/02/04 06:58:30;;;;;;;23.08;4.22;;;;;;;-146.47;100.00;65468.63;4708462;30;20049;-80
2023/02/04 07:00:56;;;;;;;20.95;4.82;;;;;;;-146.47;100.00;65468.63;4714092;30;20049;-80
2023/02/04 07:03:22;;;;;;;31.42;5.57;;;;;;;-146.47;100.00;65468.63;4713772;30;20056;-79
2023/02/04 07:05:47;;;;;;;20.77;4.60;;;;;;;-146.47;100.00;65468.63;4701528;30;20057;-74
2023/02/04 07:08:13;;;;;;;20.27;4.32;;;;;;;-146.47;100.00;65468.63;4706374;30;20049;-74
2023/02/04 07:10:38;;;;;;;16.88;4.30;;;;;;;-146.47;100.00;65468.63;4704894;30;20049;-78
2023/02/04 07:13:04;;;;;;;16.92;4.82;;;;;;;-146.47;100.00;65468.63;4704554;30;20049;-77
2023/02/04 07:15:30;;;;;;;22.52;4.45;;;;;;;-146.47;100.00;65468.63;4706465;30;20048;-78
2023/02/04 07:17:56;;;;;;;16.38;4.93;;;;;;;-146.47;100.00;65468.63;4706192;30;20478;-77
2023/02/04 07:20:21;;;;;;;24.58;4.22;;;;;;;-146.47;100.00;65468.63;4705331;30;20053;-77
2023/02/04 07:22:47;;;;;;;29.50;4.63;;;;;;;-146.47;100.00;65468.63;4703801;30;20045;-76
2023/02/04 07:25:14;;;;;;;29.45;4.63;;;;;;;-146.47;100.00;65468.63;4711459;30;20074;-76
2023/02/04 07:27:40;;;;;;;29.42;4.45;;;;;;;-146.47;100.00;65468.63;4707683;30;20052;-76
2023/02/04 07:30:06;;;;;;;27.63;4.82;;;;;;;-146.47;100.00;65468.63;4704127;30;20041;-76
2023/02/04 07:32:32;;;;;;;34.70;5.40;;;;;;;-146.47;100.00;65468.63;4708292;30;20504;-77
2023/02/04 07:34:58;;;;;;;18.83;4.35;;;;;;;-146.47;100.00;65468.63;4705152;30;20045;-77
2023/02/04 07:37:24;;;;;;;26.60;4.68;;;;;;;-146.47;100.00;65468.63;4709076;30;20048;-79
2023/02/04 07:39:50;;;;;;;27.08;4.90;;;;;;;-146.47;100.00;65468.63;4710509;30;20053;-77
2023/02/04 07:42:15;;;;;;;26.35;4.03;;;;;;;-146.47;100.00;65468.63;4709140;30;20049;-77
2023/02/04 07:44:41;;;;;;;25.85;5.18;;;;;;;-146.47;100.00;65468.63;4715308;30;20527;-76
2023/02/04 07:47:06;;;;;;;22.85;3.90;;;;;;;-146.47;100.00;65468.63;4715167;30;20076;-76
2023/02/04 07:49:32;;;;;;;23.52;4.88;;;;;;;-146.47;100.00;65468.63;4715102;30;20053;-77
2023/02/04 07:51:57;;;;;;;18.83;4.18;;;;;;;-146.47;100.00;65468.63;4706312;30;20267;-77
2023/02/04 07:54:23;;;;;;;20.10;3.92;;;;;;;-146.47;100.00;65468.63;4704315;30;20060;-76
2023/02/04 07:56:48;;;;;;;14.20;4.30;;;;;;;-146.47;100.00;65468.63;4716014;30;20056;-78
2023/02/04 07:59:14;;;;;;;24.88;4.55;;;;;;;-146.47;100.00;65468.63;4702862;30;20049;-77
2023/02/04 08:01:39;;;;;;;22.65;4.68;;;;;;;-146.47;100.00;65468.63;4707411;30;20057;-77
2023/02/04 08:04:05;;;;;;;22.83;3.85;;;;;;;-146.47;100.00;65468.63;4716393;30;20048;-77
2023/02/04 08:06:31;;;;;;;15.20;3.97;;;;;;;-146.47;100.00;65468.63;4707038;30;20042;-77
2023/02/04 08:08:56;;;;;;;17.00;4.15;;;;;;;-146.47;100.00;65468.63;4710134;30;20106;-77
2023/02/04 08:11:22;;;;;;;19.58;3.80;;;;;;;-146.47;100.00;65468.63;4698889;30;20056;-77
2023/02/04 08:13:47;;;;;;;23.15;4.05;;;;;;;-146.47;100.00;65468.63;4702825;30;20046;-77
2023/02/04 08:16:13;;;;;;;11.48;3.50;;;;;;;-146.47;100.00;65468.63;4702394;30;20046;-78
2023/02/04 08:18:38;;;;;;;15.23;3.25;;;;;;;-146.47;100.00;65468.63;4699373;30;20049;-78
2023/02/04 08:21:05;;;;;;;20.65;4.32;;;;;;;-146.47;100.00;65468.63;4712352;30;20057;-78
2023/02/04 08:23:31;;;;;;;18.58;3.83;;;;;;;-146.47;100.00;65468.63;4704626;30;20474;-79
2023/02/04 08:25:58;;;;;;;14.52;3.35;;;;;;;-146.47;100.00;65468.63;4705704;30;20045;-78
2023/02/04 08:28:24;;;;;;;18.88;4.13;;;;;;;-146.47;100.00;65468.63;4707292;30;20045;-77
2023/02/04 08:30:50;;;;;;;16.05;3.70;;;;;;;-146.47;100.00;65468.63;4704407;30;20112;-78
2023/02/04 08:33:15;;;;;;;19.27;4.25;;;;;;;-146.47;100.00;65468.63;4701211;30;20050;-77
2023/02/04 08:35:41;;;;;;;13.45;2.88;;;;;;;-146.47;100.00;65468.63;4699853;30;20045;-77
2023/02/04 08:38:06;;;;;;;11.23;3.33;;;;;;;-146.47;100.00;65468.63;4700162;30;20501;-77
2023/02/04 08:40:32;;;;;;;13.93;3.67;;;;;;;-146.47;100.00;65468.63;4705569;30;20052;-79
2023/02/04 08:42:58;;;;;;;16.85;3.45;;;;;;;-146.47;100.00;65468.63;4702095;30;20064;-80
2023/02/04 08:45:23;;;;;;;24.65;4.10;;;;;;;-146.47;100.00;65468.63;4701869;30;20055;-80
2023/02/04 08:47:49;;;;;;;14.98;4.10;;;;;;;-146.47;100.00;65468.63;4708375;30;20045;-77
2023/02/04 08:50:14;;;;;;;20.08;3.95;;;;;;;-146.47;100.00;65468.63;4706925;30;20053;-79
2023/02/04 08:52:40;;;;;;;14.48;3.60;;;;;;;-146.47;100.00;65468.63;4704982;30;20057;-78
2023/02/04 08:55:06;;;;;;;17.58;3.50;;;;;;;-146.47;100.00;65468.63;4702575;30;20075;-81
2023/02/04 08:57:33;;;;;;;21.55;3.72;;;;;;;-146.47;100.00;65468.63;4704897;30;20125;-79
2023/02/04 08:59:59;;;;;;;12.45;3.05;;;;;;;-146.47;100.00;65468.63;4710871;30;20075;-78
2023/02/04 09:02:25;;;;;;;16.70;3.40;;;;;;;-146.47;100.00;65468.63;4704765;30;20510;-78
2023/02/04 09:04:50;;;;;;;16.52;3.10;;;;;;;-146.47;100.00;65468.63;4703209;30;20076;-78
2023/02/04 09:07:16;;;;;;;20.08;4.25;;;;;;;-146.47;100.00;65468.63;4711964;30;20426;-79
2023/02/04 09:09:42;;;;;;;12.65;3.50;;;;;;;-146.47;100.00;65468.63;4707598;30;20086;-79
2023/02/04 09:12:07;;;;;;;17.15;3.42;;;;;;;-146.47;100.00;65468.63;4700529;30;20057;-79
2023/02/04 09:14:33;;;;;;;18.98;3.42;;;;;;;-146.47;100.00;65468.63;4704246;30;20041;-80
2023/02/04 09:16:59;;;;;;;20.10;4.03;;;;;;;-146.47;100.00;65468.63;4708612;30;20050;-79
2023/02/04 09:19:24;;;;;;;17.42;3.58;;;;;;;-146.47;100.00;65468.63;4701685;30;20046;-84
2023/02/04 09:21:53;;;;;;;14.48;3.58;;;;;;;-146.47;100.00;65468.63;4710343;30;20481;-81
2023/02/04 09:24:22;;;;;;;13.63;3.22;;;;;;;-146.47;100.00;65468.63;4700866;30;20103;-80
2023/02/04 09:26:48;;;;;;;11.30;3.08;;;;;;;-146.47;100.00;65468.63;4708396;30;20109;-83
2023/02/04 09:29:13;;;;;;;20.10;4.03;;;;;;;-146.47;100.00;65468.63;4707806;30;20119;-81
2023/02/04 09:31:39;;;;;;;16.23;2.92;;;;;;;-146.47;100.00;65468.63;4700353;30;20499;-82
2023/02/04 09:34:05;;;;;;;16.33;3.78;;;;;;;-146.47;100.00;65468.63;4705153;30;20109;-81
2023/02/04 09:36:36;;;;;;;13.77;3.30;;;;;;;-146.47;100.00;65468.63;4699328;30;20404;-80
2023/02/04 09:39:07;;;;;;;17.95;2.80;;;;;;;-146.47;100.00;65468.63;4710552;30;20056;-80
2023/02/04 09:41:33;;;;;;;13.57;3.13;;;;;;;-146.47;100.00;65468.63;4709620;30;20057;-73
2023/02/04 09:44:00;;;;;;;18.67;2.67;;;;;;;-146.47;100.00;65468.63;4697377;30;20069;-73
2023/02/04 09:46:27;;;;;;;17.58;3.30;;;;;;;-146.47;100.00;65468.63;4697158;30;20045;-82
2023/02/04 09:48:53;;;;;;;18.38;3.22;;;;;;;-146.47;100.00;65468.63;4706226;30;20053;-82
2023/02/04 09:51:24;;;;;;;12.18;2.63;;;;;;;-146.47;100.00;65468.63;4703602;30;20053;-81
2023/02/04 09:53:54;;;;;;;16.67;2.88;;;;;;;-146.47;100.00;65468.63;4707905;30;20044;-79
2023/02/04 09:56:19;;;;;;;10.90;2.97;;;;;;;-146.47;100.00;65468.63;4711547;30;20483;-79
2023/02/04 09:58:45;;;;;;;16.05;3.42;;;;;;;-146.47;100.00;65468.63;4712354;30;20072;-78
2023/02/04 10:01:13;;;;;;;12.10;3.00;;;;;;;-146.47;100.00;65468.63;4703860;30;20053;-78
2023/02/04 10:03:45;;;;;;;17.13;3.08;;;;;;;-146.47;100.00;65468.63;4710647;30;20060;-81
2023/02/04 10:06:15;;;;;;;14.30;2.70;;;;;;;-146.47;100.00;65468.63;4697601;30;20060;-79
2023/02/04 10:08:42;;;;;;;9.88;2.70;;;;;;;-146.47;100.00;65468.63;4699374;30;20054;-77
2023/02/04 10:11:08;;;;;;;11.98;3.03;;;;;;;-146.47;100.00;65468.63;4703038;30;20462;-79
2023/02/04 10:13:37;;;;;;;13.93;3.10;;;;;;;-146.47;100.00;65468.63;4704972;30;20050;-77
2023/02/04 10:16:11;;;;;;;12.90;3.00;;;;;;;-146.47;100.00;65468.63;4702522;30;20053;-78
2023/02/04 10:18:38;;;;;;;11.30;3.05;;;;;;;-146.47;100.00;65468.63;4711494;30;20957;-77
2023/02/04 10:21:31;;;;;;;16.45;2.95;;;;;;;-146.47;100.00;65468.63;4705619;30;20076;-77
2023/02/04 10:24:00;;;;;;;12.23;3.03;;;;;;;-146.47;100.00;65468.63;4705857;30;20049;-77
2023/02/04 10:26:28;;;;;;;17.45;3.10;;;;;;;-146.47;100.00;65468.63;4703878;30;20065;-77
2023/02/04 10:29:02;;;;;;;11.30;3.05;;;;;;;-146.47;100.00;65468.63;4713400;30;20064;-77
2023/02/04 10:31:39;;;;;;;12.98;2.75;;;;;;;-146.47;100.00;65468.63;4710128;30;20068;-78
2023/02/04 10:34:15;;;;;;;17.98;3.13;;;;;;;-146.47;100.00;65468.63;4705841;30;20403;-77
2023/02/04 10:36:44;;;;;;;15.38;3.08;;;;;;;-146.47;100.00;65468.63;4714305;30;20098;-77
2023/02/04 10:39:21;;;;;;;14.07;2.72;;;;;;;-146.47;100.00;65468.63;4711766;30;20071;-78
2023/02/04 10:41:49;;;;;;;6.50;2.10;;;;;;;-146.47;100.00;65468.63;4718850;30;20131;-81
2023/02/04 10:44:17;;;;;;;5.28;1.95;;;;;;;-146.47;100.00;65468.63;4712757;30;20050;-81
2023/02/04 10:46:43;;;;;;;8.88;2.10;;;;;;;-146.47;100.00;65468.63;4704171;30;20141;-78
2023/02/04 10:49:18;;;;;;;5.45;1.92;;;;;;;-146.47;100.00;65468.63;4706983;30;20495;-81
2023/02/04 10:51:43;;;;;;;;;;;;;;;-146.47;100.00;65468.63;4707281;30;20052;-78
2023/02/04 10:54:31;;;;;;;6.65;2.53;;;;;;;-146.47;100.00;65468.63;4712547;30;19927;-79
2023/02/04 10:57:25;;;;;;;6.18;2.05;;;;;;;-146.47;100.00;65468.63;4732641;30;20045;-79
2023/02/04 10:59:54;;;;;;;5.80;1.95;;;;;;;-146.47;100.00;65468.63;4703222;30;20114;-79
2023/02/04 11:02:38;;;;;;;6.18;2.15;;;;;;;-146.47;100.00;65468.63;4714398;30;20037;-80